Terminal Aerodrome Forecast
Issued by NWS Tulsa, OK

Home | Current Version | Previous Version | Text Only | Print | Product List | Glossary On
Versions: 1 2 3 4 5 6 7 8 9 10 11 12 13 14 15
000
FTUS44 KTSA 301806 AAA
TAFTUL
TAF AMD
KTUL 301806Z 3018/3118 31013KT P6SM VCTS SCT030CB SCT090 BKN250
     FM301900 06007KT P6SM SCT050 BKN250
     FM310300 07004KT P6SM SCT100 BKN250=

USA.gov is the U.S. government's official web portal to all federal, state and local government web resources and services.